sensor_id;sensor_type;location;lat;lon;timestamp;pressure;altitude;pressure_sealevel;temperature;humidity
72636;BME280;60679;48.888;15.544;2023-02-03T00:00:57;96955.38;;;-1.22;nan
72636;BME280;60679;48.888;15.544;2023-02-03T00:03:23;96956.31;;;-1.23;nan
72636;BME280;60679;48.888;15.544;2023-02-03T00:05:49;96953.09;;;-1.26;nan
72636;BME280;60679;48.888;15.544;2023-02-03T00:08:16;96955.16;;;-1.30;nan
72636;BME280;60679;48.888;15.544;2023-02-03T00:10:43;96955.31;;;-1.31;nan
72636;BME280;60679;48.888;15.544;2023-02-03T00:13:09;96953.88;;;-1.35;nan
72636;BME280;60679;48.888;15.544;2023-02-03T00:15:34;96942.47;;;-1.36;nan
72636;BME280;60679;48.888;15.544;2023-02-03T00:18:00;96935.22;;;-1.34;nan
72636;BME280;60679;48.888;15.544;2023-02-03T00:20:25;96952.50;;;-1.30;nan
72636;BME280;60679;48.888;15.544;2023-02-03T00:22:51;96950.72;;;-1.29;nan
72636;BME280;60679;48.888;15.544;2023-02-03T00:25:16;96956.16;;;-1.31;nan
72636;BME280;60679;48.888;15.544;2023-02-03T00:27:43;96949.75;;;-1.28;nan
72636;BME280;60679;48.888;15.544;2023-02-03T00:30:10;96947.09;;;-1.28;nan
72636;BME280;60679;48.888;15.544;2023-02-03T00:32:36;96955.03;;;-1.28;nan
72636;BME280;60679;48.888;15.544;2023-02-03T00:35:02;96952.66;;;-1.31;nan
72636;BME280;60679;48.888;15.544;2023-02-03T00:37:28;96945.69;;;-1.32;nan
72636;BME280;60679;48.888;15.544;2023-02-03T00:39:53;96948.91;;;-1.29;nan
72636;BME280;60679;48.888;15.544;2023-02-03T00:42:19;96946.00;;;-1.26;nan
72636;BME280;60679;48.888;15.544;2023-02-03T00:44:44;96955.38;;;-1.22;nan
72636;BME280;60679;48.888;15.544;2023-02-03T00:47:10;96954.25;;;-1.19;nan
72636;BME280;60679;48.888;15.544;2023-02-03T00:49:35;96952.16;;;-1.16;nan
72636;BME280;60679;48.888;15.544;2023-02-03T00:52:01;96948.13;;;-1.10;nan
72636;BME280;60679;48.888;15.544;2023-02-03T00:54:26;96953.16;;;-1.07;nan
72636;BME280;60679;48.888;15.544;2023-02-03T00:56:52;96957.22;;;-1.03;nan
72636;BME280;60679;48.888;15.544;2023-02-03T00:59:17;96950.13;;;-1.02;nan
72636;BME280;60679;48.888;15.544;2023-02-03T01:01:43;96956.78;;;-0.98;nan
72636;BME280;60679;48.888;15.544;2023-02-03T01:04:13;96954.88;;;-0.96;nan
72636;BME280;60679;48.888;15.544;2023-02-03T01:06:39;96958.22;;;-0.94;nan
72636;BME280;60679;48.888;15.544;2023-02-03T01:09:05;96964.34;;;-0.94;nan
72636;BME280;60679;48.888;15.544;2023-02-03T01:11:31;96949.56;;;-0.96;nan
72636;BME280;60679;48.888;15.544;2023-02-03T01:13:57;96951.22;;;-0.95;nan
72636;BME280;60679;48.888;15.544;2023-02-03T01:16:26;96944.81;;;-0.93;nan
72636;BME280;60679;48.888;15.544;2023-02-03T01:18:53;96941.91;;;-0.90;nan
72636;BME280;60679;48.888;15.544;2023-02-03T01:21:23;96932.13;;;-0.89;nan
72636;BME280;60679;48.888;15.544;2023-02-03T01:23:50;96932.97;;;-0.89;nan
72636;BME280;60679;48.888;15.544;2023-02-03T01:26:18;96919.84;;;-0.90;nan
72636;BME280;60679;48.888;15.544;2023-02-03T01:28:50;96932.72;;;-0.86;nan
72636;BME280;60679;48.888;15.544;2023-02-03T01:31:19;96933.41;;;-0.84;nan
72636;BME280;60679;48.888;15.544;2023-02-03T01:33:46;96936.63;;;-0.80;nan
72636;BME280;60679;48.888;15.544;2023-02-03T01:36:14;96924.91;;;-0.78;nan
72636;BME280;60679;48.888;15.544;2023-02-03T01:38:40;96914.88;;;-0.74;nan
72636;BME280;60679;48.888;15.544;2023-02-03T01:41:09;96905.66;;;-0.70;nan
72636;BME280;60679;48.888;15.544;2023-02-03T01:43:45;96907.19;;;-0.68;nan
72636;BME280;60679;48.888;15.544;2023-02-03T01:46:32;96903.28;;;-0.64;nan
72636;BME280;60679;48.888;15.544;2023-02-03T01:49:12;96914.31;;;-0.59;nan
72636;BME280;60679;48.888;15.544;2023-02-03T01:51:40;96896.47;;;-0.56;nan
72636;BME280;60679;48.888;15.544;2023-02-03T01:54:08;96891.56;;;-0.61;nan
72636;BME280;60679;48.888;15.544;2023-02-03T01:56:38;96898.81;;;-0.63;nan
72636;BME280;60679;48.888;15.544;2023-02-03T01:59:06;96886.69;;;-0.66;nan
72636;BME280;60679;48.888;15.544;2023-02-03T02:01:32;96885.00;;;-0.67;nan
72636;BME280;60679;48.888;15.544;2023-02-03T02:04:00;96886.69;;;-0.66;nan
72636;BME280;60679;48.888;15.544;2023-02-03T02:06:27;96883.03;;;-0.65;nan
72636;BME280;60679;48.888;15.544;2023-02-03T02:08:52;96872.31;;;-0.63;nan
72636;BME280;60679;48.888;15.544;2023-02-03T02:11:20;96880.94;;;-0.61;nan
72636;BME280;60679;48.888;15.544;2023-02-03T02:13:47;96875.81;;;-0.63;nan
72636;BME280;60679;48.888;15.544;2023-02-03T02:19:18;96865.03;;;-0.61;nan
72636;BME280;60679;48.888;15.544;2023-02-03T02:33:48;96837.97;;;-0.55;nan
72636;BME280;60679;48.888;15.544;2023-02-03T02:39:09;96835.31;;;-0.55;nan
72636;BME280;60679;48.888;15.544;2023-02-03T02:41:43;96820.25;;;-0.54;nan
72636;BME280;60679;48.888;15.544;2023-02-03T02:44:24;96812.13;;;-0.53;nan
72636;BME280;60679;48.888;15.544;2023-02-03T02:46:53;96813.66;;;-0.50;nan
72636;BME280;60679;48.888;15.544;2023-02-03T02:51:52;96807.09;;;-0.46;nan
72636;BME280;60679;48.888;15.544;2023-02-03T02:54:21;96805.31;;;-0.46;nan
72636;BME280;60679;48.888;15.544;2023-02-03T02:56:52;96803.34;;;-0.44;nan
72636;BME280;60679;48.888;15.544;2023-02-03T02:59:19;96802.22;;;-0.41;nan
72636;BME280;60679;48.888;15.544;2023-02-03T03:01:45;96796.63;;;-0.38;nan
72636;BME280;60679;48.888;15.544;2023-02-03T03:04:12;96789.50;;;-0.38;nan
72636;BME280;60679;48.888;15.544;2023-02-03T03:06:56;96786.00;;;-0.38;nan
72636;BME280;60679;48.888;15.544;2023-02-03T03:09:32;96777.94;;;-0.37;nan
72636;BME280;60679;48.888;15.544;2023-02-03T03:12:14;96779.56;;;-0.36;nan
72636;BME280;60679;48.888;15.544;2023-02-03T03:14:44;96772.47;;;-0.35;nan
72636;BME280;60679;48.888;15.544;2023-02-03T03:17:21;96773.31;;;-0.35;nan
72636;BME280;60679;48.888;15.544;2023-02-03T03:19:52;96772.47;;;-0.35;nan
72636;BME280;60679;48.888;15.544;2023-02-03T03:22:24;96770.50;;;-0.33;nan
72636;BME280;60679;48.888;15.544;2023-02-03T03:25:20;96765.34;;;-0.35;nan
72636;BME280;60679;48.888;15.544;2023-02-03T03:27:52;96780.13;;;-0.32;nan
72636;BME280;60679;48.888;15.544;2023-02-03T03:30:23;96779.44;;;-0.34;nan
72636;BME280;60679;48.888;15.544;2023-02-03T03:32:50;96791.59;;;-0.32;nan
72636;BME280;60679;48.888;15.544;2023-02-03T03:35:16;96791.59;;;-0.32;nan
72636;BME280;60679;48.888;15.544;2023-02-03T03:38:24;96773.03;;;-0.32;nan
72636;BME280;60679;48.888;15.544;2023-02-03T03:41:24;96765.06;;;-0.32;nan
72636;BME280;60679;48.888;15.544;2023-02-03T03:43:54;96764.22;;;-0.32;nan
72636;BME280;60679;48.888;15.544;2023-02-03T03:46:27;96760.59;;;-0.31;nan
72636;BME280;60679;48.888;15.544;2023-02-03T03:49:02;96750.09;;;-0.33;nan
72636;BME280;60679;48.888;15.544;2023-02-03T03:51:36;96741.03;;;-0.30;nan
72636;BME280;60679;48.888;15.544;2023-02-03T03:54:07;96740.19;;;-0.31;nan
72636;BME280;60679;48.888;15.544;2023-02-03T03:59:31;96731.41;;;-0.31;nan
72636;BME280;60679;48.888;15.544;2023-02-03T04:01:58;96740.19;;;-0.31;nan
72636;BME280;60679;48.888;15.544;2023-02-03T04:04:29;96741.03;;;-0.30;nan
72636;BME280;60679;48.888;15.544;2023-02-03T04:06:55;96733.78;;;-0.28;nan
72636;BME280;60679;48.888;15.544;2023-02-03T04:09:21;96724.13;;;-0.29;nan
72636;BME280;60679;48.888;15.544;2023-02-03T04:11:47;96724.13;;;-0.29;nan
72636;BME280;60679;48.888;15.544;2023-02-03T04:14:29;96716.03;;;-0.28;nan
72636;BME280;60679;48.888;15.544;2023-02-03T04:16:56;96706.41;;;-0.29;nan
72636;BME280;60679;48.888;15.544;2023-02-03T04:19:22;96706.41;;;-0.29;nan
72636;BME280;60679;48.888;15.544;2023-02-03T04:21:47;96708.91;;;-0.27;nan
72636;BME280;60679;48.888;15.544;2023-02-03T04:24:13;96712.94;;;-0.23;nan
72636;BME280;60679;48.888;15.544;2023-02-03T04:26:38;96711.13;;;-0.23;nan
72636;BME280;60679;48.888;15.544;2023-02-03T04:29:05;96707.34;;;-0.20;nan
72636;BME280;60679;48.888;15.544;2023-02-03T04:31:30;96688.78;;;-0.20;nan
72636;BME280;60679;48.888;15.544;2023-02-03T04:33:56;96695.72;;;-0.19;nan
72636;BME280;60679;48.888;15.544;2023-02-03T04:36:22;96688.63;;;-0.19;nan
72636;BME280;60679;48.888;15.544;2023-02-03T04:38:48;96688.50;;;-0.17;nan
72636;BME280;60679;48.888;15.544;2023-02-03T04:41:14;96683.84;;;-0.15;nan
72636;BME280;60679;48.888;15.544;2023-02-03T04:43:39;96688.03;;;-0.13;nan
72636;BME280;60679;48.888;15.544;2023-02-03T04:46:05;96691.38;;;-0.11;nan
72636;BME280;60679;48.888;15.544;2023-02-03T04:48:30;96689.41;;;-0.09;nan
72636;BME280;60679;48.888;15.544;2023-02-03T04:51:04;96688.28;;;-0.06;nan
72636;BME280;60679;48.888;15.544;2023-02-03T04:53:30;96676.66;;;-0.05;nan
72636;BME280;60679;48.888;15.544;2023-02-03T04:55:56;96676.66;;;-0.05;nan
72636;BME280;60679;48.888;15.544;2023-02-03T04:58:21;96677.22;;;-0.02;nan
72636;BME280;60679;48.888;15.544;2023-02-03T05:00:47;96687.25;;;0.05;nan
72636;BME280;60679;48.888;15.544;2023-02-03T05:03:13;96688.75;;;0.07;nan
72636;BME280;60679;48.888;15.544;2023-02-03T05:05:38;96686.09;;;0.07;nan
72636;BME280;60679;48.888;15.544;2023-02-03T05:08:04;96683.16;;;0.10;nan
72636;BME280;60679;48.888;15.544;2023-02-03T05:10:30;96682.31;;;0.10;nan
72636;BME280;60679;48.888;15.544;2023-02-03T05:12:55;96688.47;;;0.10;nan
72636;BME280;60679;48.888;15.544;2023-02-03T05:15:21;96671.84;;;0.08;nan
72636;BME280;60679;48.888;15.544;2023-02-03T05:17:46;96669.88;;;0.10;nan
72636;BME280;60679;48.888;15.544;2023-02-03T05:20:11;96670.72;;;0.11;nan
72636;BME280;60679;48.888;15.544;2023-02-03T05:22:37;96671.41;;;0.13;nan
72636;BME280;60679;48.888;15.544;2023-02-03T05:25:03;96674.22;;;0.11;nan
72636;BME280;60679;48.888;15.544;2023-02-03T05:27:29;96669.59;;;0.13;nan
72636;BME280;60679;48.888;15.544;2023-02-03T05:29:57;96663.28;;;0.14;nan
72636;BME280;60679;48.888;15.544;2023-02-03T05:32:23;96655.63;;;0.11;nan
72636;BME280;60679;48.888;15.544;2023-02-03T05:34:48;96655.63;;;0.11;nan
72636;BME280;60679;48.888;15.544;2023-02-03T05:37:14;96648.34;;;0.13;nan
72636;BME280;60679;48.888;15.544;2023-02-03T05:39:39;96648.06;;;0.16;nan
72636;BME280;60679;48.888;15.544;2023-02-03T05:42:05;96636.59;;;0.16;nan
72636;BME280;60679;48.888;15.544;2023-02-03T05:44:31;96635.75;;;0.15;nan
72636;BME280;60679;48.888;15.544;2023-02-03T05:46:57;96633.94;;;0.16;nan
72636;BME280;60679;48.888;15.544;2023-02-03T05:49:24;96633.94;;;0.16;nan
72636;BME280;60679;48.888;15.544;2023-02-03T05:51:51;96627.94;;;0.14;nan
72636;BME280;60679;48.888;15.544;2023-02-03T05:54:20;96631.41;;;0.14;nan
72636;BME280;60679;48.888;15.544;2023-02-03T05:56:46;96623.44;;;0.14;nan
72636;BME280;60679;48.888;15.544;2023-02-03T05:59:11;96620.66;;;0.16;nan
72636;BME280;60679;48.888;15.544;2023-02-03T06:01:37;96623.84;;;0.19;nan
72636;BME280;60679;48.888;15.544;2023-02-03T06:04:03;96623.38;;;0.24;nan
72636;BME280;60679;48.888;15.544;2023-02-03T06:06:29;96616.09;;;0.26;nan
72636;BME280;60679;48.888;15.544;2023-02-03T06:09:23;96608.38;;;0.32;nan
72636;BME280;60679;48.888;15.544;2023-02-03T06:11:48;96610.72;;;0.35;nan
72636;BME280;60679;48.888;15.544;2023-02-03T06:14:14;96614.06;;;0.37;nan
72636;BME280;60679;48.888;15.544;2023-02-03T06:16:40;96622.72;;;0.39;nan
72636;BME280;60679;48.888;15.544;2023-02-03T06:19:05;96617.25;;;0.41;nan
72636;BME280;60679;48.888;15.544;2023-02-03T06:21:31;96619.91;;;0.41;nan
72636;BME280;60679;48.888;15.544;2023-02-03T06:24:08;96617.06;;;0.42;nan
72636;BME280;60679;48.888;15.544;2023-02-03T08:54:54;96469.03;;;3.14;nan
72636;BME280;60679;48.888;15.544;2023-02-03T08:57:26;96459.00;;;3.24;nan
72636;BME280;60679;48.888;15.544;2023-02-03T08:59:53;96463.94;;;3.35;nan
72636;BME280;60679;48.888;15.544;2023-02-03T09:02:19;96459.09;;;3.38;nan
72636;BME280;60679;48.888;15.544;2023-02-03T09:04:47;96463.84;;;3.51;nan
72636;BME280;60679;48.888;15.544;2023-02-03T09:07:14;96472.50;;;3.61;nan
72636;BME280;60679;48.888;15.544;2023-02-03T09:09:40;96470.75;;;3.68;nan
72636;BME280;60679;48.888;15.544;2023-02-03T09:12:06;96460.56;;;3.72;nan
72636;BME280;60679;48.888;15.544;2023-02-03T09:14:33;96462.88;;;3.75;nan
72636;BME280;60679;48.888;15.544;2023-02-03T09:17:03;96441.53;;;3.75;nan
72636;BME280;60679;48.888;15.544;2023-02-03T09:19:30;96430.78;;;3.83;nan
72636;BME280;60679;48.888;15.544;2023-02-03T09:21:58;96446.19;;;3.95;nan
72636;BME280;60679;48.888;15.544;2023-02-03T09:24:24;96440.41;;;3.92;nan
72636;BME280;60679;48.888;15.544;2023-02-03T09:26:49;96422.94;;;4.04;nan
72636;BME280;60679;48.888;15.544;2023-02-03T09:29:15;96416.75;;;4.41;nan
72636;BME280;60679;48.888;15.544;2023-02-03T09:31:41;96422.06;;;4.78;nan
72636;BME280;60679;48.888;15.544;2023-02-03T09:34:08;96420.75;;;4.59;nan
72636;BME280;60679;48.888;15.544;2023-02-03T09:36:34;96403.88;;;4.59;nan
72636;BME280;60679;48.888;15.544;2023-02-03T09:38:59;96408.88;;;4.77;nan
72636;BME280;60679;48.888;15.544;2023-02-03T09:41:39;96395.31;;;5.07;nan
72636;BME280;60679;48.888;15.544;2023-02-03T09:44:28;96401.56;;;5.00;nan
72636;BME280;60679;48.888;15.544;2023-02-03T09:46:59;96385.13;;;5.17;nan
72636;BME280;60679;48.888;15.544;2023-02-03T09:49:40;96378.53;;;5.35;nan
72636;BME280;60679;48.888;15.544;2023-02-03T09:52:17;96379.59;;;5.19;nan
72636;BME280;60679;48.888;15.544;2023-02-03T09:54:58;96378.88;;;5.10;nan
72636;BME280;60679;48.888;15.544;2023-02-03T09:57:29;96370.59;;;4.76;nan
72636;BME280;60679;48.888;15.544;2023-02-03T09:59:58;96363.97;;;4.43;nan
72636;BME280;60679;48.888;15.544;2023-02-03T10:03:40;96351.09;;;4.24;nan
72636;BME280;60679;48.888;15.544;2023-02-03T10:08:25;96351.06;;;3.94;nan
72636;BME280;60679;48.888;15.544;2023-02-03T10:11:21;96362.25;;;3.75;nan
72636;BME280;60679;48.888;15.544;2023-02-03T10:19:24;96351.31;;;3.39;nan
72636;BME280;60679;48.888;15.544;2023-02-03T10:21:58;96347.59;;;3.26;nan
72636;BME280;60679;48.888;15.544;2023-02-03T10:24:26;96348.81;;;3.15;nan
72636;BME280;60679;48.888;15.544;2023-02-03T10:26:56;96345.66;;;3.12;nan
72636;BME280;60679;48.888;15.544;2023-02-03T10:29:41;96362.38;;;3.06;nan
72636;BME280;60679;48.888;15.544;2023-02-03T10:32:19;96347.66;;;2.87;nan
72636;BME280;60679;48.888;15.544;2023-02-03T10:34:46;96341.88;;;2.75;nan
72636;BME280;60679;48.888;15.544;2023-02-03T10:39:51;96335.94;;;2.88;nan
72636;BME280;60679;48.888;15.544;2023-02-03T10:42:17;96333.47;;;2.86;nan
72636;BME280;60679;48.888;15.544;2023-02-03T10:45:09;96339.50;;;2.80;nan
72636;BME280;60679;48.888;15.544;2023-02-03T10:47:44;96327.50;;;2.84;nan
72636;BME280;60679;48.888;15.544;2023-02-03T10:50:17;96321.31;;;2.84;nan
72636;BME280;60679;48.888;15.544;2023-02-03T10:52:43;96312.50;;;2.83;nan
72636;BME280;60679;48.888;15.544;2023-02-03T10:57:49;96287.66;;;2.83;nan
72636;BME280;60679;48.888;15.544;2023-02-03T11:00:28;96266.47;;;2.89;nan
72636;BME280;60679;48.888;15.544;2023-02-03T11:03:22;96258.25;;;2.99;nan
72636;BME280;60679;48.888;15.544;2023-02-03T11:06:12;96270.25;;;2.95;nan
72636;BME280;60679;48.888;15.544;2023-02-03T11:08:43;96255.75;;;2.98;nan
72636;BME280;60679;48.888;15.544;2023-02-03T11:11:13;96242.25;;;2.99;nan
72636;BME280;60679;48.888;15.544;2023-02-03T11:14:10;96229.72;;;3.00;nan
72636;BME280;60679;48.888;15.544;2023-02-03T11:16:37;96221.28;;;2.96;nan
72636;BME280;60679;48.888;15.544;2023-02-03T11:19:04;96210.59;;;2.96;nan
72636;BME280;60679;48.888;15.544;2023-02-03T11:24:38;96204.16;;;2.90;nan
72636;BME280;60679;48.888;15.544;2023-02-03T11:29:51;96213.91;;;2.98;nan
72636;BME280;60679;48.888;15.544;2023-02-03T11:32:32;96204.72;;;3.01;nan
72636;BME280;60679;48.888;15.544;2023-02-03T11:35:15;96200.75;;;2.97;nan
72636;BME280;60679;48.888;15.544;2023-02-03T11:37:43;96212.53;;;3.02;nan
72636;BME280;60679;48.888;15.544;2023-02-03T11:42:49;96193.16;;;3.08;nan
72636;BME280;60679;48.888;15.544;2023-02-03T11:45:29;96187.53;;;3.03;nan
72636;BME280;60679;48.888;15.544;2023-02-03T11:48:27;96178.53;;;3.04;nan
72636;BME280;60679;48.888;15.544;2023-02-03T11:51:02;96182.13;;;3.11;nan
72636;BME280;60679;48.888;15.544;2023-02-03T12:07:18;96124.00;;;3.07;nan
72636;BME280;60679;48.888;15.544;2023-02-03T12:12:40;96110.53;;;3.00;nan
72636;BME280;60679;48.888;15.544;2023-02-03T12:18:17;96099.16;;;3.06;nan
72636;BME280;60679;48.888;15.544;2023-02-03T12:23:38;96083.69;;;2.87;nan
72636;BME280;60679;48.888;15.544;2023-02-03T12:26:21;96089.72;;;2.81;nan
72636;BME280;60679;48.888;15.544;2023-02-03T12:29:01;96072.53;;;2.83;nan
72636;BME280;60679;48.888;15.544;2023-02-03T12:31:31;96076.97;;;2.91;nan
72636;BME280;60679;48.888;15.544;2023-02-03T12:34:14;96058.59;;;2.96;nan
72636;BME280;60679;48.888;15.544;2023-02-03T12:40:05;96054.75;;;2.99;nan
72636;BME280;60679;48.888;15.544;2023-02-03T12:42:39;96063.47;;;2.92;nan
72636;BME280;60679;48.888;15.544;2023-02-03T12:48:41;96046.88;;;2.82;nan
72636;BME280;60679;48.888;15.544;2023-02-03T12:51:32;96048.28;;;2.78;nan
72636;BME280;60679;48.888;15.544;2023-02-03T12:54:38;96033.28;;;2.77;nan
72636;BME280;60679;48.888;15.544;2023-02-03T12:57:35;96016.91;;;2.80;nan
72636;BME280;60679;48.888;15.544;2023-02-03T13:00:13;96029.97;;;2.75;nan
72636;BME280;60679;48.888;15.544;2023-02-03T13:05:23;96035.53;;;2.66;nan
72636;BME280;60679;48.888;15.544;2023-02-03T13:08:08;96031.59;;;2.62;nan
72636;BME280;60679;48.888;15.544;2023-02-03T13:10:52;96018.34;;;2.54;nan
72636;BME280;60679;48.888;15.544;2023-02-03T13:13:37;96032.41;;;2.48;nan
72636;BME280;60679;48.888;15.544;2023-02-03T13:16:08;96029.13;;;2.38;nan
72636;BME280;60679;48.888;15.544;2023-02-03T13:18:42;96032.97;;;2.35;nan
72636;BME280;60679;48.888;15.544;2023-02-03T13:21:11;96035.56;;;2.28;nan
72636;BME280;60679;48.888;15.544;2023-02-03T13:23:40;96034.25;;;2.24;nan
72636;BME280;60679;48.888;15.544;2023-02-03T13:34:32;96055.72;;;2.00;nan
72636;BME280;60679;48.888;15.544;2023-02-03T13:42:38;96041.19;;;1.80;nan
72636;BME280;60679;48.888;15.544;2023-02-03T13:47:52;96044.38;;;1.75;nan
72636;BME280;60679;48.888;15.544;2023-02-03T13:50:27;96038.88;;;1.77;nan
72636;BME280;60679;48.888;15.544;2023-02-03T13:53:05;96043.31;;;1.85;nan
72636;BME280;60679;48.888;15.544;2023-02-03T13:55:36;96036.19;;;1.85;nan
72636;BME280;60679;48.888;15.544;2023-02-03T13:58:06;96020.84;;;1.87;nan
72636;BME280;60679;48.888;15.544;2023-02-03T14:05:48;96016.91;;;1.83;nan
72636;BME280;60679;48.888;15.544;2023-02-03T14:16:46;96034.75;;;1.74;nan
72636;BME280;60679;48.888;15.544;2023-02-03T14:22:01;96022.09;;;1.77;nan
72636;BME280;60679;48.888;15.544;2023-02-03T14:24:34;96009.63;;;1.77;nan
72636;BME280;60679;48.888;15.544;2023-02-03T14:27:04;95988.31;;;1.77;nan
72636;BME280;60679;48.888;15.544;2023-02-03T14:29:34;95991.63;;;1.79;nan
72636;BME280;60679;48.888;15.544;2023-02-03T14:32:06;95988.63;;;1.82;nan
72636;BME280;60679;48.888;15.544;2023-02-03T14:34:43;95972.34;;;1.77;nan
72636;BME280;60679;48.888;15.544;2023-02-03T14:37:11;95953.81;;;1.84;nan
72636;BME280;60679;48.888;15.544;2023-02-03T14:39:57;95964.31;;;1.85;nan
72636;BME280;60679;48.888;15.544;2023-02-03T14:58:54;95935.31;;;1.90;nan
72636;BME280;60679;48.888;15.544;2023-02-03T15:01:26;95935.66;;;1.87;nan
72636;BME280;60679;48.888;15.544;2023-02-03T15:06:40;95935.50;;;1.89;nan
72636;BME280;60679;48.888;15.544;2023-02-03T15:12:17;95907.41;;;1.86;nan
72636;BME280;60679;48.888;15.544;2023-02-03T15:14:43;95932.50;;;1.92;nan
72636;BME280;60679;48.888;15.544;2023-02-03T15:17:21;95913.19;;;1.90;nan
72636;BME280;60679;48.888;15.544;2023-02-03T15:20:00;95903.38;;;1.90;nan
72636;BME280;60679;48.888;15.544;2023-02-03T15:22:27;95908.19;;;1.95;nan
72636;BME280;60679;48.888;15.544;2023-02-03T15:24:59;95904.13;;;1.99;nan
72636;BME280;60679;48.888;15.544;2023-02-03T15:27:32;95883.94;;;2.04;nan
72636;BME280;60679;48.888;15.544;2023-02-03T15:30:14;95888.19;;;2.13;nan
72636;BME280;60679;48.888;15.544;2023-02-03T15:32:44;95889.66;;;2.16;nan
72636;BME280;60679;48.888;15.544;2023-02-03T15:35:16;95870.81;;;2.17;nan
72636;BME280;60679;48.888;15.544;2023-02-03T15:38:12;95867.16;;;2.18;nan
72636;BME280;60679;48.888;15.544;2023-02-03T15:40:51;95875.34;;;2.17;nan
72636;BME280;60679;48.888;15.544;2023-02-03T15:46:09;95863.41;;;2.13;nan
72636;BME280;60679;48.888;15.544;2023-02-03T15:48:56;95852.28;;;2.09;nan
72636;BME280;60679;48.888;15.544;2023-02-03T15:51:36;95839.53;;;2.05;nan
72636;BME280;60679;48.888;15.544;2023-02-03T15:56:46;95849.63;;;2.24;nan
72636;BME280;60679;48.888;15.544;2023-02-03T16:01:47;95834.84;;;2.21;nan
72636;BME280;60679;48.888;15.544;2023-02-03T16:04:16;95837.03;;;2.18;nan
72636;BME280;60679;48.888;15.544;2023-02-03T16:06:47;95838.22;;;2.15;nan
72636;BME280;60679;48.888;15.544;2023-02-03T16:09:39;95840.00;;;2.23;nan
72636;BME280;60679;48.888;15.544;2023-02-03T16:12:22;95833.38;;;2.19;nan
72636;BME280;60679;48.888;15.544;2023-02-03T16:14:49;95848.63;;;2.25;nan
72636;BME280;60679;48.888;15.544;2023-02-03T16:19:50;95840.91;;;2.15;nan
72636;BME280;60679;48.888;15.544;2023-02-03T16:22:30;95843.41;;;2.17;nan
72636;BME280;60679;48.888;15.544;2023-02-03T16:25:22;95862.03;;;2.17;nan
72636;BME280;60679;48.888;15.544;2023-02-03T16:28:17;95858.28;;;2.11;nan
72636;BME280;60679;48.888;15.544;2023-02-03T16:31:18;95879.00;;;2.16;nan
72636;BME280;60679;48.888;15.544;2023-02-03T16:34:29;95874.25;;;2.11;nan
72636;BME280;60679;48.888;15.544;2023-02-03T16:37:23;95881.19;;;2.12;nan
72636;BME280;60679;48.888;15.544;2023-02-03T16:40:13;95886.88;;;2.09;nan
72636;BME280;60679;48.888;15.544;2023-02-03T16:43:03;95881.56;;;2.09;nan
72636;BME280;60679;48.888;15.544;2023-02-03T16:45:53;95915.31;;;2.17;nan
72636;BME280;60679;48.888;15.544;2023-02-03T16:48:38;95910.34;;;2.14;nan
72636;BME280;60679;48.888;15.544;2023-02-03T16:51:22;95931.28;;;2.17;nan
72636;BME280;60679;48.888;15.544;2023-02-03T16:53:55;95953.03;;;2.20;nan
72636;BME280;60679;48.888;15.544;2023-02-03T16:56:24;95983.72;;;2.16;nan
72636;BME280;60679;48.888;15.544;2023-02-03T16:58:49;96005.00;;;2.16;nan
72636;BME280;60679;48.888;15.544;2023-02-03T17:01:15;96006.25;;;2.06;nan
72636;BME280;60679;48.888;15.544;2023-02-03T17:03:40;96025.34;;;2.09;nan
72636;BME280;60679;48.888;15.544;2023-02-03T17:06:10;96035.00;;;2.10;nan
72636;BME280;60679;48.888;15.544;2023-02-03T17:08:37;96049.84;;;2.05;nan
72636;BME280;60679;48.888;15.544;2023-02-03T17:11:11;96023.44;;;1.95;nan
72636;BME280;60679;48.888;15.544;2023-02-03T17:13:39;96000.69;;;1.93;nan
72636;BME280;60679;48.888;15.544;2023-02-03T17:16:09;96005.91;;;1.86;nan
72636;BME280;60679;48.888;15.544;2023-02-03T17:18:35;95998.22;;;1.91;nan
72636;BME280;60679;48.888;15.544;2023-02-03T17:21:06;96003.25;;;1.86;nan
72636;BME280;60679;48.888;15.544;2023-02-03T17:23:33;95998.28;;;1.83;nan
72636;BME280;60679;48.888;15.544;2023-02-03T17:25:59;96006.53;;;1.88;nan
72636;BME280;60679;48.888;15.544;2023-02-03T17:28:24;95999.91;;;1.84;nan
72636;BME280;60679;48.888;15.544;2023-02-03T17:31:22;96002.47;;;1.78;nan
72636;BME280;60679;48.888;15.544;2023-02-03T17:33:51;96006.47;;;1.73;nan
72636;BME280;60679;48.888;15.544;2023-02-03T17:36:18;96007.25;;;1.82;nan
72636;BME280;60679;48.888;15.544;2023-02-03T17:38:49;95999.84;;;1.92;nan
72636;BME280;60679;48.888;15.544;2023-02-03T17:41:17;96005.78;;;2.02;nan
72636;BME280;60679;48.888;15.544;2023-02-03T17:43:44;96000.75;;;2.07;nan
72636;BME280;60679;48.888;15.544;2023-02-03T17:46:12;95995.19;;;2.17;nan
72636;BME280;60679;48.888;15.544;2023-02-03T17:48:38;95998.66;;;2.17;nan
72636;BME280;60679;48.888;15.544;2023-02-03T17:51:08;96007.19;;;2.13;nan
72636;BME280;60679;48.888;15.544;2023-02-03T17:53:36;95995.72;;;2.12;nan
72636;BME280;60679;48.888;15.544;2023-02-03T17:56:07;95977.25;;;2.11;nan
72636;BME280;60679;48.888;15.544;2023-02-03T17:58:32;96003.34;;;2.15;nan
72636;BME280;60679;48.888;15.544;2023-02-03T18:00:58;96005.28;;;2.21;nan
72636;BME280;60679;48.888;15.544;2023-02-03T18:03:23;96021.22;;;2.29;nan
72636;BME280;60679;48.888;15.544;2023-02-03T18:05:52;96014.75;;;2.24;nan
72636;BME280;60679;48.888;15.544;2023-02-03T18:08:17;96018.31;;;2.16;nan
72636;BME280;60679;48.888;15.544;2023-02-03T18:10:43;96029.09;;;2.23;nan
72636;BME280;60679;48.888;15.544;2023-02-03T18:13:11;96036.41;;;2.21;nan
72636;BME280;60679;48.888;15.544;2023-02-03T18:15:36;96029.31;;;2.13;nan
72636;BME280;60679;48.888;15.544;2023-02-03T18:18:02;96037.31;;;2.13;nan
72636;BME280;60679;48.888;15.544;2023-02-03T18:20:28;96050.63;;;2.13;nan
72636;BME280;60679;48.888;15.544;2023-02-03T18:22:53;96033.81;;;2.13;nan
72636;BME280;60679;48.888;15.544;2023-02-03T18:25:19;96050.56;;;2.21;nan
72636;BME280;60679;48.888;15.544;2023-02-03T18:27:44;96040.75;;;2.22;nan
72636;BME280;60679;48.888;15.544;2023-02-03T18:30:10;96062.34;;;2.27;nan
72636;BME280;60679;48.888;15.544;2023-02-03T18:32:36;96056.47;;;2.31;nan